Time;durP1;ratioP1;P1;durP2;ratioP2;P2;SDS_P1;SDS_P2;PMS_P1;PMS_P2;Temp;Humidity;BMP_temperature;BMP_pressure;BME280_temperature;BME280_humidity;BME280_pressure;Samples;Min_cycle;Max_cycle;Signal;HPM_P1;HPM_P2
2022/07/09 00:02:25;;;;;;;6.60;5.32;;;15.50;99.90;;;-141.84;83.31;19385.03;5030993;28;20224;-67
2022/07/09 00:04:53;;;;;;;6.53;5.32;;;15.60;99.90;;;-141.84;83.35;19441.94;5031278;28;20728;-66
2022/07/09 00:07:22;;;;;;;4.88;4.40;;;15.60;99.90;;;-141.84;83.61;19439.91;5030840;28;20586;-66
2022/07/09 00:09:51;;;;;;;5.40;4.90;;;15.60;99.90;;;-141.84;83.31;19484.59;5030926;28;20309;-65
2022/07/09 00:12:19;;;;;;;10.15;5.43;;;15.70;99.90;;;-141.84;83.35;19466.31;5030908;28;20312;-66
2022/07/09 00:14:47;;;;;;;6.80;6.18;;;15.70;99.90;;;-141.84;83.06;19435.84;5030806;28;20313;-67
2022/07/09 00:17:17;;;;;;;7.28;5.60;;;15.80;99.90;;;-141.84;83.35;19429.75;5030953;28;20662;-66
2022/07/09 00:19:45;;;;;;;6.03;5.43;;;15.60;99.90;;;-141.84;83.93;19429.75;5030585;28;20702;-66
2022/07/09 00:22:13;;;;;;;6.05;5.50;;;15.60;99.90;;;-141.84;84.62;19411.44;5030835;28;20230;-66
2022/07/09 00:24:41;;;;;;;6.28;5.28;;;15.50;99.90;;;-141.84;85.51;19364.72;5030695;28;20229;-64
2022/07/09 00:27:10;;;;;;;6.47;5.88;;;15.40;99.90;;;-141.84;85.79;19360.66;5030783;28;20249;-66
2022/07/09 00:29:38;;;;;;;5.70;5.20;;;15.30;99.90;;;-141.84;86.16;19326.09;5030714;28;20293;-66
2022/07/09 00:32:06;;;;;;;6.72;5.50;;;15.30;99.90;;;-141.84;86.54;19267.16;5031111;28;20209;-66
2022/07/09 00:34:36;;;;;;;5.75;5.25;;;15.20;99.90;;;-141.84;86.49;19297.66;5030518;28;20235;-65
2022/07/09 00:37:05;;;;;;;6.15;5.53;;;15.20;99.90;;;-141.84;87.14;19315.94;5030265;28;20265;-66
2022/07/09 00:39:33;;;;;;;6.45;5.85;;;15.10;99.90;;;-141.84;87.42;19261.06;5030620;28;20633;-66
2022/07/09 00:42:07;;;;;;;6.30;5.70;;;15.10;99.90;;;-141.84;87.59;19250.91;5029896;28;20313;-66
2022/07/09 00:44:36;;;;;;;5.80;5.25;;;15.10;99.90;;;-141.84;87.55;19232.63;5029751;28;20185;-66
2022/07/09 00:47:07;;;;;;;6.88;5.30;;;15.10;99.90;;;-141.84;87.87;19224.50;5029889;28;20662;-66
2022/07/09 00:49:40;;;;;;;7.45;5.93;;;15.00;99.90;;;-141.84;88.22;19226.53;5030801;28;20320;-65
2022/07/09 00:52:12;;;;;;;7.43;5.63;;;15.00;99.90;;;-141.84;88.52;19122.91;5034483;28;20268;-67
2022/07/09 00:54:42;;;;;;;5.50;5.00;;;15.00;99.90;;;-141.84;88.64;19145.25;5034540;28;20740;-66
2022/07/09 00:57:12;;;;;;;5.72;5.07;;;15.00;99.90;;;-141.84;88.59;19155.41;5034341;28;20679;-67
2022/07/09 00:59:41;;;;;;;5.45;4.95;;;15.10;99.90;;;-141.84;88.40;19143.22;5034665;28;20252;-66
2022/07/09 01:02:10;;;;;;;8.18;5.53;;;15.10;99.90;;;-141.84;87.12;19187.91;5034752;28;20208;-66
2022/07/09 01:04:40;;;;;;;5.70;5.20;;;15.20;99.90;;;-141.84;86.68;19187.91;5034299;28;20923;-65
2022/07/09 01:07:08;;;;;;;5.75;4.95;;;15.30;99.90;;;-141.84;86.64;19202.16;5034212;28;20310;-66
2022/07/09 01:09:36;;;;;;;5.07;4.55;;;15.30;99.90;;;-141.84;86.78;19196.06;5034234;28;20320;-66
2022/07/09 01:12:06;;;;;;;5.78;4.78;;;15.30;99.90;;;-141.84;86.01;19187.91;5021357;28;20222;-67
2022/07/09 01:14:34;;;;;;;5.05;4.57;;;15.40;99.90;;;-141.84;86.92;19179.78;5014344;28;20647;-65
2022/07/09 01:17:05;;;;;;;5.15;4.65;;;15.30;99.90;;;-141.84;87.01;19131.03;5014720;28;20305;-66
2022/07/09 01:19:35;;;;;;;4.88;4.47;;;15.30;99.90;;;-141.84;87.21;19159.47;5014210;28;20226;-66
2022/07/09 01:22:05;;;;;;;5.68;4.72;;;15.30;99.90;;;-141.84;87.35;19116.81;5033730;28;20320;-66
2022/07/09 01:24:35;;;;;;;6.97;5.10;;;15.20;99.90;;;-141.84;87.30;19120.88;5033820;28;20241;-65
2022/07/09 01:27:04;;;;;;;5.80;5.15;;;15.20;99.90;;;-141.84;87.27;19112.75;5033983;28;20228;-66
2022/07/09 01:29:32;;;;;;;5.28;4.75;;;15.20;99.90;;;-141.84;87.55;19074.13;5034165;28;20218;-66
2022/07/09 01:32:00;;;;;;;5.65;5.07;;;15.20;99.90;;;-141.84;88.11;19045.69;5034239;28;20194;-66
2022/07/09 01:34:28;;;;;;;5.53;5.03;;;15.10;99.90;;;-141.84;88.45;19025.38;5033741;28;20320;-66
2022/07/09 01:36:56;;;;;;;5.93;5.03;;;15.10;99.90;;;-141.84;88.68;18990.81;5033806;28;20225;-66
2022/07/09 01:39:25;;;;;;;5.82;5.32;;;15.10;99.90;;;-141.84;88.62;18986.75;5033851;28;20246;-66
2022/07/09 01:41:54;;;;;;;5.47;4.97;;;15.10;99.90;;;-141.84;88.44;19017.25;5033860;28;20373;-66
2022/07/09 01:44:22;;;;;;;5.28;4.70;;;15.10;99.90;;;-141.84;88.52;19015.19;5033997;28;20202;-67
2022/07/09 01:46:50;;;;;;;5.15;4.50;;;15.10;99.90;;;-141.84;88.33;19043.66;5033867;28;20294;-65
2022/07/09 01:49:18;;;;;;;5.10;4.60;;;15.20;99.90;;;-141.84;88.23;19009.09;5033414;28;20309;-66
2022/07/09 01:51:46;;;;;;;5.07;4.68;;;15.30;99.90;;;-141.84;88.01;19021.31;5033386;28;20230;-66
2022/07/09 01:54:14;;;;;;;5.28;4.60;;;15.30;99.90;;;-141.84;87.65;19013.16;5033640;28;20230;-66
2022/07/09 01:56:44;;;;;;;5.97;4.95;;;15.40;99.90;;;-141.84;87.83;19009.09;5033293;28;20249;-66
2022/07/09 01:59:12;;;;;;;4.82;4.43;;;15.30;99.90;;;-141.84;87.24;19043.66;5033759;28;20285;-65
2022/07/09 02:01:40;;;;;;;6.65;5.00;;;15.30;99.90;;;-141.84;87.17;19047.72;5031799;28;20228;-67
2022/07/09 02:04:08;;;;;;;5.53;4.55;;;15.30;99.90;;;-141.84;87.74;19013.16;5033355;28;20226;-68
2022/07/09 02:06:36;;;;;;;6.40;4.85;;;15.30;99.90;;;-141.84;87.95;18968.47;5033280;28;20753;-68
2022/07/09 02:09:04;;;;;;;5.25;4.25;;;15.20;99.90;;;-141.84;88.21;18962.38;5033363;28;20230;-66
2022/07/09 02:11:32;;;;;;;5.75;4.85;;;15.20;99.90;;;-141.84;88.33;18950.19;5032802;28;20615;-66
2022/07/09 02:14:02;;;;;;;6.80;4.68;;;15.20;99.90;;;-141.84;88.51;18931.91;5033791;28;20285;-65
2022/07/09 02:16:30;;;;;;;5.22;4.72;;;15.20;99.90;;;-141.84;87.92;18956.28;5032593;28;20225;-67
2022/07/09 02:18:58;;;;;;;5.50;5.00;;;15.20;99.90;;;-141.84;87.43;18988.78;5032961;28;20336;-66
2022/07/09 02:21:27;;;;;;;6.22;5.05;;;15.20;99.90;;;-141.84;87.77;18978.63;5032783;28;20225;-66
2022/07/09 02:23:58;;;;;;;5.10;4.55;;;15.10;99.90;;;-141.84;87.87;18976.59;5033270;28;20218;-66
2022/07/09 02:26:27;;;;;;;6.97;4.60;;;15.20;99.90;;;-141.84;87.65;18982.69;5033231;28;20197;-65
2022/07/09 02:28:55;;;;;;;6.20;4.85;;;15.30;99.90;;;-141.84;87.26;18984.72;5033432;28;20310;-66
2022/07/09 02:31:25;;;;;;;5.30;4.60;;;15.30;99.90;;;-141.84;86.69;19114.78;5032285;28;20222;-66
2022/07/09 02:33:54;;;;;;;5.60;4.80;;;15.30;99.90;;;-141.84;86.78;18968.47;5032708;28;20755;-65
2022/07/09 02:36:22;;;;;;;5.13;4.70;;;15.40;99.90;;;-141.84;86.62;19027.41;5032651;28;20250;-67
2022/07/09 02:38:50;;;;;;;5.15;4.65;;;15.30;99.90;;;-141.84;87.11;18976.59;5032743;28;20232;-67
2022/07/09 02:41:19;;;;;;;5.35;4.13;;;15.30;99.90;;;-141.84;87.66;18970.50;5033329;28;20835;-66
2022/07/09 02:43:47;;;;;;;4.60;4.20;;;15.20;99.90;;;-141.84;87.92;18958.31;5032630;28;20218;-66
2022/07/09 02:46:16;;;;;;;5.30;4.50;;;15.10;99.90;;;-141.84;88.70;18927.84;5032390;28;20244;-66
2022/07/09 02:48:45;;;;;;;6.65;4.88;;;15.00;99.90;;;-141.84;89.29;18864.84;5032207;28;20715;-66
2022/07/09 02:51:13;;;;;;;5.07;4.47;;;14.90;99.90;;;-141.84;89.66;18832.34;5032398;28;20225;-66
2022/07/09 02:53:41;;;;;;;5.50;4.93;;;14.90;99.90;;;-141.84;89.83;18803.88;5032428;28;20253;-66
2022/07/09 02:56:11;;;;;;;5.88;4.70;;;14.80;99.90;;;-141.84;90.15;18789.66;5032943;28;20301;-65
2022/07/09 02:58:40;;;;;;;6.20;5.10;;;14.80;99.90;;;-141.84;90.59;18791.69;5030783;28;20729;-60
2022/07/09 03:01:08;;;;;;;5.68;5.18;;;14.70;99.90;;;-141.84;90.65;18749.03;5030570;28;20232;-59
2022/07/09 03:03:36;;;;;;;5.28;4.78;;;14.70;99.90;;;-141.84;90.84;18702.28;5031138;28;20266;-60
2022/07/09 03:06:07;;;;;;;5.97;5.20;;;14.60;99.90;;;-141.84;91.33;18704.31;5031091;28;20257;-61
2022/07/09 03:08:36;;;;;;;5.78;5.28;;;14.60;99.90;;;-141.84;91.58;18651.50;5031009;28;20197;-61
2022/07/09 03:11:06;;;;;;;6.57;5.20;;;14.50;99.90;;;-141.84;91.45;18657.59;5031046;28;20314;-61
2022/07/09 03:13:34;;;;;;;5.18;4.75;;;14.50;99.90;;;-141.84;91.55;18673.84;5030629;28;20233;-59
2022/07/09 03:16:03;;;;;;;5.43;4.90;;;14.50;99.90;;;-141.84;91.76;18647.44;5030625;28;20272;-61
2022/07/09 03:18:32;;;;;;;7.20;5.10;;;14.50;99.90;;;-141.84;92.09;18562.09;5030764;28;20284;-60
2022/07/09 03:21:01;;;;;;;5.90;5.20;;;14.50;99.90;;;-141.84;92.08;18598.69;5030718;28;20224;-60
2022/07/09 03:23:30;;;;;;;5.80;4.93;;;14.50;99.90;;;-141.84;91.96;18592.59;5030823;28;20245;-61
2022/07/09 03:25:58;;;;;;;5.72;5.15;;;14.50;99.90;;;-141.84;91.65;18590.56;5031250;28;20677;-59
2022/07/09 03:28:26;;;;;;;5.25;4.75;;;14.70;99.90;;;-141.84;91.49;18610.88;5030585;28;20305;-60
2022/07/09 03:30:55;;;;;;;5.68;4.70;;;14.70;99.90;;;-141.84;90.80;18645.41;5030590;28;20237;-60
2022/07/09 03:33:24;;;;;;;7.05;4.60;;;14.80;99.90;;;-141.84;90.27;18641.34;5030322;28;20783;-60
2022/07/09 03:35:53;;;;;;;4.60;4.20;;;14.90;99.90;;;-141.84;89.93;18675.88;5030789;28;20225;-61
2022/07/09 03:38:21;;;;;;;4.93;4.43;;;15.00;99.90;;;-141.84;89.91;18661.66;5030751;28;20273;-61
2022/07/09 03:40:52;;;;;;;4.95;4.43;;;15.00;99.90;;;-141.84;89.89;18621.03;5031225;28;20289;-60
2022/07/09 03:43:20;;;;;;;5.07;4.38;;;15.00;99.90;;;-141.84;89.23;18722.63;5030535;28;20222;-60
2022/07/09 03:45:49;;;;;;;4.68;4.10;;;15.10;99.90;;;-141.84;88.73;18720.59;5030558;28;20308;-59
2022/07/09 03:48:17;;;;;;;4.70;4.30;;;15.20;99.90;;;-141.84;88.23;18781.53;5030594;28;20226;-59
2022/07/09 03:50:45;;;;;;;4.47;4.00;;;15.30;99.90;;;-141.84;87.63;18781.53;5030606;28;20226;-59
2022/07/09 03:53:13;;;;;;;4.63;4.22;;;15.40;99.90;;;-141.84;87.03;18828.28;5030746;28;20245;-59
2022/07/09 03:55:42;;;;;;;5.72;4.78;;;15.50;99.90;;;-141.84;84.53;18933.94;5030686;28;20229;-60
2022/07/09 03:58:11;;;;;;;5.32;4.32;;;15.60;99.90;;;-141.84;84.90;18992.84;5030450;28;20304;-60
2022/07/09 04:00:40;;;;;;;4.35;3.95;;;15.70;99.90;;;-141.84;84.55;19013.16;5030069;28;20663;-60
2022/07/09 04:03:08;;;;;;;4.32;3.78;;;15.80;99.90;;;-141.84;84.19;19039.59;5030051;28;20713;-60
2022/07/09 04:05:36;;;;;;;6.40;4.32;;;15.90;99.90;;;-141.84;83.46;19080.22;5030035;28;20647;-60
2022/07/09 04:08:04;;;;;;;3.63;3.38;;;15.90;99.90;;;-141.84;83.36;19096.47;5030484;28;20297;-60
2022/07/09 04:10:32;;;;;;;5.28;3.92;;;16.00;99.90;;;-141.84;81.22;19187.91;5029628;28;20264;-59
2022/07/09 04:13:01;;;;;;;7.05;4.15;;;16.10;99.90;;;-141.84;80.62;19269.22;5030161;28;20309;-60
2022/07/09 04:15:32;;;;;;;5.07;3.92;;;16.20;99.90;;;-141.84;79.98;19330.16;5029757;28;20233;-60
2022/07/09 04:18:00;;;;;;;5.82;3.88;;;16.40;99.90;;;-141.84;79.59;19378.94;5030840;28;20229;-60
2022/07/09 04:20:28;;;;;;;4.90;3.90;;;16.40;99.90;;;-141.84;80.12;19311.88;5029787;28;20596;-60
2022/07/09 04:22:57;;;;;;;4.82;4.32;;;16.40;99.90;;;-141.84;80.42;19305.78;5030514;28;20237;-60
2022/07/09 04:25:25;;;;;;;5.75;4.43;;;16.50;99.90;;;-141.84;80.04;19330.16;5028981;28;20261;-60
2022/07/09 04:27:53;;;;;;;7.15;4.05;;;16.50;99.90;;;-141.84;79.14;19362.69;5029743;28;20612;-59
2022/07/09 04:30:21;;;;;;;5.20;3.90;;;16.60;99.90;;;-141.84;78.50;19417.56;5029677;28;20228;-60
2022/07/09 04:32:50;;;;;;;4.10;3.78;;;16.70;99.90;;;-141.84;78.06;19454.13;5029759;28;20249;-60
2022/07/09 04:35:18;;;;;;;3.67;3.35;;;16.80;99.90;;;-141.84;77.66;19486.66;5029796;28;20198;-60
2022/07/09 04:37:47;;;;;;;3.75;3.33;;;17.00;99.90;;;-141.84;75.31;19594.34;5029962;28;20296;-60
2022/07/09 04:40:15;;;;;;;3.90;2.83;;;17.30;99.90;;;-141.84;73.46;19677.66;5029414;28;20317;-59
2022/07/09 04:42:43;;;;;;;3.35;3.05;;;17.60;99.90;;;-141.84;73.20;19712.22;5029665;28;20230;-61
2022/07/09 04:45:12;;;;;;;4.10;3.28;;;17.90;99.90;;;-141.84;72.26;19732.53;5029300;28;20257;-59
2022/07/09 04:47:40;;;;;;;4.80;3.10;;;18.00;99.90;;;-141.84;72.46;19750.84;5029564;28;20306;-60
2022/07/09 04:50:11;;;;;;;4.22;3.33;;;17.90;99.90;;;-141.84;72.94;19675.63;5030219;28;20287;-60
2022/07/09 04:52:40;;;;;;;4.35;3.40;;;17.90;99.90;;;-141.84;72.73;19708.16;5029704;28;20308;-59
2022/07/09 04:55:10;;;;;;;4.85;3.40;;;17.90;99.90;;;-141.84;73.24;19708.16;5029447;28;20233;-59
2022/07/09 04:57:38;;;;;;;5.18;3.45;;;17.90;99.90;;;-141.84;73.74;19663.44;5029342;28;20253;-60
2022/07/09 05:00:08;;;;;;;5.93;4.03;;;17.70;99.90;;;-141.84;73.14;19718.31;5029412;28;20226;-59
2022/07/09 05:02:36;;;;;;;4.95;4.10;;;17.70;99.90;;;-141.84;73.39;19689.88;5028926;28;20666;-59
2022/07/09 05:05:06;;;;;;;5.68;4.03;;;17.60;99.90;;;-141.84;74.40;19655.31;5030284;28;20212;-60
2022/07/09 05:07:37;;;;;;;5.05;4.25;;;17.60;99.90;;;-141.84;73.57;19726.44;5029214;28;20222;-60
2022/07/09 05:10:06;;;;;;;5.75;4.03;;;17.70;99.90;;;-141.84;71.22;19765.06;5029068;28;20232;-60
2022/07/09 05:12:34;;;;;;;5.97;4.25;;;17.90;99.90;;;-141.84;70.78;19793.50;5029699;28;20305;-60
2022/07/09 05:15:02;;;;;;;5.95;3.90;;;18.00;99.90;;;-141.84;70.83;19789.44;5030732;28;20236;-60
2022/07/09 05:17:35;;;;;;;5.10;4.00;;;18.00;99.90;;;-141.84;70.14;19817.91;5030407;28;20206;-60
2022/07/09 05:20:04;;;;;;;4.40;4.00;;;18.10;99.90;;;-141.84;70.32;19801.66;5030163;28;20289;-60
2022/07/09 05:22:35;;;;;;;4.47;4.07;;;18.10;99.90;;;-141.84;70.32;19767.09;5029884;28;20781;-60
2022/07/09 05:25:06;;;;;;;4.50;3.97;;;18.10;99.90;;;-141.84;70.89;19789.44;5029981;28;20304;-59
2022/07/09 05:27:42;;;;;;;4.78;4.28;;;18.10;99.90;;;-141.84;68.89;19819.94;5030154;28;20310;-59
2022/07/09 05:30:14;;;;;;;4.57;3.95;;;18.20;99.90;;;-141.84;68.96;19913.44;5030216;28;20239;-60
2022/07/09 05:32:47;;;;;;;4.53;3.72;;;18.40;99.90;;;-141.84;68.05;19899.19;5029961;28;20229;-59
2022/07/09 05:35:17;;;;;;;8.88;4.45;;;18.60;99.90;;;-141.84;67.00;19927.66;5030765;28;20233;-61
2022/07/09 05:37:46;;;;;;;5.43;4.18;;;18.50;99.90;;;-141.84;67.58;19917.50;5032989;28;20424;-59
2022/07/09 05:40:15;;;;;;;4.93;4.43;;;18.40;99.90;;;-141.84;67.82;19899.19;5033386;28;20225;-60
2022/07/09 05:42:43;;;;;;;6.20;4.80;;;18.30;99.90;;;-141.84;68.87;19858.56;5033415;28;20313;-59
2022/07/09 05:45:11;;;;;;;7.65;4.70;;;18.20;99.90;;;-141.84;68.82;19856.53;5033268;28;20237;-60
2022/07/09 05:47:39;;;;;;;4.75;4.25;;;18.20;99.90;;;-141.84;69.90;19854.50;5033091;28;20317;-61
2022/07/09 05:50:08;;;;;;;4.93;4.00;;;18.20;99.90;;;-141.84;70.93;19789.44;5033948;28;20241;-59
2022/07/09 05:52:37;;;;;;;5.68;4.85;;;18.10;99.90;;;-141.84;70.91;19860.59;5033366;28;20265;-60
2022/07/09 05:55:07;;;;;;;8.05;4.60;;;18.10;99.90;;;-141.84;70.74;19785.38;5033327;28;20317;-59
2022/07/09 05:57:35;;;;;;;6.53;4.60;;;18.00;99.90;;;-141.84;70.54;19803.69;5033300;28;20435;-61
2022/07/09 06:00:06;;;;;;;7.32;4.70;;;18.00;99.90;;;-141.84;70.78;19793.50;5033183;28;20228;-58
2022/07/09 06:02:34;;;;;;;6.32;5.57;;;18.00;99.90;;;-141.84;69.87;19807.75;5033280;28;20218;-61
2022/07/09 06:05:03;;;;;;;8.48;4.82;;;18.00;99.90;;;-141.84;70.92;19807.75;5033568;28;20286;-60
2022/07/09 06:07:31;;;;;;;6.75;5.03;;;17.80;99.90;;;-141.84;71.76;19736.59;5032921;28;20830;-60
2022/07/09 06:09:59;;;;;;;6.38;4.85;;;17.80;99.90;;;-141.84;72.28;19724.41;5033017;28;20309;-60
2022/07/09 06:12:28;;;;;;;6.22;5.25;;;17.70;99.90;;;-141.84;71.24;19779.28;5032932;28;20304;-65
2022/07/09 06:14:56;;;;;;;6.43;5.45;;;17.80;99.90;;;-141.84;70.97;19828.06;5032718;28;20751;-65
2022/07/09 06:17:25;;;;;;;6.78;5.20;;;17.80;99.90;;;-141.84;69.71;19832.13;5032487;28;20202;-64
2022/07/09 06:19:53;;;;;;;7.07;5.40;;;17.90;99.90;;;-141.84;68.62;19864.66;5033335;28;20210;-65
2022/07/09 06:22:21;;;;;;;5.18;4.60;;;17.90;99.90;;;-141.84;70.11;19826.03;5032648;28;20241;-66
2022/07/09 06:24:49;;;;;;;6.03;4.90;;;18.00;99.90;;;-141.84;69.76;19838.22;5033011;28;20236;-65
2022/07/09 06:27:17;;;;;;;6.07;4.18;;;18.00;99.90;;;-141.84;69.08;19854.50;5032949;28;20313;-65
2022/07/09 06:29:47;;;;;;;7.03;5.03;;;18.10;99.90;;;-141.84;68.74;19828.06;5032921;28;20226;-66
2022/07/09 06:32:15;;;;;;;5.78;4.50;;;18.00;99.90;;;-141.84;69.86;19834.16;5032988;28;20334;-66
2022/07/09 06:34:43;;;;;;;4.97;4.40;;;18.00;99.90;;;-141.84;70.03;19811.81;5032539;28;20237;-66
2022/07/09 06:37:11;;;;;;;8.10;4.65;;;17.90;99.90;;;-141.84;70.11;19787.41;5032525;28;20226;-66
2022/07/09 06:39:45;;;;;;;6.97;4.68;;;17.90;99.90;;;-141.84;69.75;19848.38;5032486;28;20256;-65
2022/07/09 06:42:16;;;;;;;6.88;5.07;;;17.90;99.90;;;-141.84;69.92;19787.41;5032101;28;20316;-65
2022/07/09 06:44:45;;;;;;;7.38;5.35;;;17.80;99.90;;;-141.84;69.34;19801.66;5033523;28;20307;-66
2022/07/09 06:47:15;;;;;;;7.10;5.13;;;17.80;99.90;;;-141.84;69.87;19795.53;5032543;28;20238;-66
2022/07/09 06:49:43;;;;;;;5.05;4.65;;;17.70;99.90;;;-141.84;70.75;19797.59;5032956;28;20267;-64
2022/07/09 06:52:11;;;;;;;6.30;5.13;;;17.70;99.90;;;-141.84;70.94;19765.06;5032545;28;20241;-66
2022/07/09 06:54:39;;;;;;;6.00;4.95;;;17.80;99.90;;;-141.84;70.85;19779.28;5033089;28;20229;-66
2022/07/09 06:57:09;;;;;;;6.70;4.90;;;17.90;99.90;;;-141.84;70.12;19860.59;5033145;28;20308;-66
2022/07/09 06:59:37;;;;;;;6.53;5.00;;;18.00;99.90;;;-141.84;69.01;19854.50;5033358;28;20628;-65
2022/07/09 07:02:05;;;;;;;5.03;4.50;;;18.20;99.90;;;-141.84;66.95;19903.25;5033031;28;20198;-65
2022/07/09 07:04:35;;;;;;;5.32;4.82;;;18.30;99.90;;;-141.84;64.93;19976.44;5032761;28;20327;-66
2022/07/09 07:07:04;;;;;;;8.55;5.38;;;18.50;99.90;;;-141.84;65.16;19962.19;5032928;28;20257;-66
2022/07/09 07:09:33;;;;;;;6.35;4.85;;;18.50;99.90;;;-141.84;65.04;20002.84;5033018;28;20312;-65
2022/07/09 07:12:01;;;;;;;6.10;5.13;;;18.60;99.90;;;-141.84;63.75;20057.72;5032361;28;20781;-66
2022/07/09 07:14:29;;;;;;;6.38;5.78;;;18.70;99.90;;;-141.84;61.91;20080.09;5032852;28;20198;-65
2022/07/09 07:16:57;;;;;;;8.10;5.40;;;18.90;99.90;;;-141.84;62.02;20126.84;5033203;28;20243;-65
2022/07/09 07:19:25;;;;;;;6.82;5.50;;;18.90;99.90;;;-141.84;62.86;20071.97;5032706;28;20225;-66
2022/07/09 07:21:55;;;;;;;6.78;5.45;;;18.90;99.90;;;-141.84;63.05;20078.06;5032627;28;20308;-65
2022/07/09 07:24:23;;;;;;;7.43;5.13;;;18.90;99.90;;;-141.84;63.95;20071.97;5032286;28;20304;-66
2022/07/09 07:26:52;;;;;;;9.18;6.47;;;18.90;99.90;;;-141.84;62.75;20118.69;5031308;28;20254;-66
2022/07/09 07:29:21;;;;;;;8.68;5.97;;;19.00;99.90;;;-141.84;62.50;20122.78;5031403;28;20206;-64
2022/07/09 07:31:49;;;;;;;7.18;5.25;;;19.20;99.90;;;-141.84;61.86;20098.38;5031851;28;20343;-67
2022/07/09 07:34:21;;;;;;;5.82;5.28;;;19.10;99.90;;;-141.84;62.83;20076.03;5031691;28;20312;-67
2022/07/09 07:36:51;;;;;;;7.00;5.95;;;19.10;99.90;;;-141.84;62.75;20078.06;5030669;28;20241;-65
2022/07/09 07:39:21;;;;;;;6.95;5.88;;;18.90;99.90;;;-141.84;64.18;20031.31;5031544;28;20645;-66
2022/07/09 07:41:50;;;;;;;11.73;6.93;;;18.80;99.90;;;-141.84;64.27;20010.97;5031354;28;20323;-65
2022/07/09 07:44:19;;;;;;;7.25;5.90;;;18.70;99.90;;;-141.84;64.44;20027.25;5032186;28;20256;-66
2022/07/09 07:46:47;;;;;;;8.25;6.63;;;18.60;99.90;;;-141.84;65.25;19947.97;5031327;28;20572;-66
2022/07/09 07:49:15;;;;;;;8.95;6.03;;;18.60;99.90;;;-141.84;65.58;19976.44;5031106;28;20630;-66
2022/07/09 07:51:43;;;;;;;8.02;6.25;;;18.50;99.90;;;-141.84;66.36;19966.28;5025560;28;20312;-67
2022/07/09 07:54:11;;;;;;;7.13;6.47;;;18.60;99.90;;;-141.84;63.36;20039.44;5025937;28;20302;-65
2022/07/09 07:56:41;;;;;;;9.30;6.65;;;18.70;99.90;;;-141.84;62.69;20057.72;5025248;28;20712;-65
2022/07/09 07:59:09;;;;;;;7.65;6.47;;;18.80;99.90;;;-141.84;62.11;20124.81;5030717;28;20201;-65
2022/07/09 08:01:38;;;;;;;8.93;7.10;;;19.00;99.90;;;-141.84;61.05;20161.38;5030772;28;20308;-66
2022/07/09 08:04:06;;;;;;;7.45;6.40;;;19.10;99.90;;;-141.84;61.41;20183.75;5030923;28;20229;-65
2022/07/09 08:06:35;;;;;;;8.20;7.35;;;19.30;99.90;;;-141.84;60.42;20179.69;5025816;28;20228;-65
2022/07/09 08:09:04;;;;;;;9.38;7.30;;;19.30;99.90;;;-141.84;60.30;20265.03;5029537;28;20222;-64
2022/07/09 08:11:32;;;;;;;9.88;7.40;;;19.40;99.90;;;-141.84;60.15;20206.09;5030886;28;20226;-65
2022/07/09 08:14:01;;;;;;;10.18;7.18;;;19.50;99.90;;;-141.84;59.32;20285.38;5025410;28;20202;-64
2022/07/09 08:16:29;;;;;;;7.10;5.97;;;19.70;99.90;;;-141.84;58.83;20285.38;5025851;28;20341;-65
2022/07/09 08:18:58;;;;;;;8.63;6.90;;;20.00;99.90;;;-141.84;55.72;20482.53;5030057;28;20250;-60
2022/07/09 08:21:26;;;;;;;8.05;6.80;;;20.50;99.90;;;-141.84;54.79;20533.34;5024916;28;20225;-60
2022/07/09 08:23:55;;;;;;;7.25;6.38;;;20.80;99.90;;;-141.84;53.67;20539.47;5030568;28;20301;-59
2022/07/09 08:26:25;;;;;;;10.20;6.72;;;21.00;99.90;;;-141.84;54.36;20486.59;5022404;28;20221;-60
2022/07/09 08:28:54;;;;;;;7.47;6.50;;;20.80;99.90;;;-141.84;55.62;20439.84;5029936;28;20290;-60
2022/07/09 08:31:24;;;;;;;6.50;5.88;;;20.70;99.90;;;-141.84;57.32;20346.34;5029963;28;20306;-61
2022/07/09 08:33:53;;;;;;;6.63;5.93;;;20.50;99.90;;;-141.84;56.80;20364.66;5030201;28;20361;-59
2022/07/09 08:36:21;;;;;;;6.07;5.47;;;20.40;99.90;;;-141.84;57.58;20338.22;5030261;28;20316;-60
2022/07/09 08:38:49;;;;;;;6.75;5.60;;;20.30;99.90;;;-141.84;57.13;20289.44;5030216;28;20296;-60
2022/07/09 08:41:20;;;;;;;7.05;5.57;;;20.10;99.90;;;-141.84;56.98;20330.09;5030937;28;20201;-60
2022/07/09 08:43:55;;;;;;;6.07;5.30;;;20.00;99.90;;;-141.84;58.09;20309.75;5030447;28;20539;-60
2022/07/09 08:46:24;;;;;;;6.65;5.65;;;20.00;99.90;;;-141.84;57.95;20336.19;5029860;28;20232;-60
2022/07/09 08:48:56;;;;;;;6.80;5.57;;;20.10;99.90;;;-141.84;58.05;20324.00;5030003;28;20241;-60
2022/07/09 08:51:25;;;;;;;6.75;5.20;;;20.10;99.90;;;-141.84;58.21;20338.22;5028244;28;20218;-60
2022/07/09 08:53:55;;;;;;;6.50;5.25;;;20.10;99.90;;;-141.84;57.25;20328.06;5027186;28;20248;-61
2022/07/09 08:56:24;;;;;;;6.15;4.90;;;20.10;99.90;;;-141.84;57.77;20336.19;5029270;28;20724;-59
2022/07/09 08:58:52;;;;;;;7.45;4.78;;;20.20;99.90;;;-141.84;57.46;20421.56;5030526;28;20726;-60
2022/07/09 09:01:20;;;;;;;6.55;5.22;;;20.20;99.90;;;-141.84;56.45;20391.06;5030249;28;20226;-61
2022/07/09 09:03:50;;;;;;;5.70;4.22;;;20.30;99.90;;;-141.84;56.42;20378.88;5025601;28;20214;-59
2022/07/09 09:06:23;;;;;;;5.85;4.93;;;20.40;99.90;;;-141.84;56.04;20441.88;5030364;28;20241;-60
2022/07/09 09:08:56;;;;;;;8.57;4.72;;;20.60;99.90;;;-141.84;54.97;20533.34;5030408;28;20253;-61
2022/07/09 09:11:28;;;;;;;6.05;4.70;;;20.80;99.90;;;-141.84;54.23;20521.16;5031163;28;20193;-61
2022/07/09 09:13:56;;;;;;;5.43;4.40;;;20.80;99.90;;;-141.84;53.93;20561.81;5033154;28;20305;-61
2022/07/09 09:16:25;;;;;;;4.35;3.95;;;20.90;99.90;;;-141.84;55.26;20502.88;5033269;28;20773;-61
2022/07/09 09:18:55;;;;;;;5.30;3.95;;;20.80;99.90;;;-141.84;54.54;20511.00;5029841;28;20221;-61
2022/07/09 09:21:26;;;;;;;4.88;3.95;;;20.80;99.90;;;-141.84;54.93;20521.16;5033731;28;20820;-60
2022/07/09 09:23:58;;;;;;;6.90;4.55;;;20.80;99.90;;;-141.84;55.16;20513.03;5034173;28;20222;-60
2022/07/09 09:26:28;;;;;;;6.28;4.38;;;20.80;99.90;;;-141.84;55.02;20474.41;5033948;28;20197;-61
2022/07/09 09:28:58;;;;;;;5.20;4.13;;;20.80;99.90;;;-141.84;53.79;20563.84;5034253;28;20205;-60
2022/07/09 09:31:29;;;;;;;4.47;3.92;;;21.00;99.90;;;-141.84;54.07;20598.41;5033974;28;20288;-60
2022/07/09 09:34:13;;;;;;;5.03;4.30;;;21.00;99.90;;;-141.84;53.44;20594.34;5033248;28;20683;-60
2022/07/09 09:36:44;;;;;;;5.28;3.50;;;21.20;99.90;;;-141.84;54.70;20561.81;5051553;28;20220;-59
2022/07/09 09:39:16;;;;;;;5.38;4.22;;;21.30;99.90;;;-141.84;53.71;20582.16;5053794;28;20308;-59
2022/07/09 09:41:48;;;;;;;5.30;4.03;;;21.30;99.90;;;-141.84;55.07;20519.13;5053949;28;20271;-60
2022/07/09 09:44:19;;;;;;;4.60;4.10;;;21.10;99.90;;;-141.84;54.38;20541.50;5054223;28;20271;-60
2022/07/09 09:46:48;;;;;;;4.22;3.83;;;21.10;99.90;;;-141.84;54.36;20537.44;5053487;28;20727;-60
2022/07/09 09:49:18;;;;;;;6.78;4.40;;;21.20;99.90;;;-141.84;54.00;20535.41;5052967;28;20225;-61
2022/07/09 09:51:50;;;;;;;4.60;3.88;;;21.10;99.90;;;-141.84;55.71;20508.97;5035994;28;20301;-61
2022/07/09 09:54:20;;;;;;;5.88;4.35;;;21.20;99.90;;;-141.84;54.46;20525.22;5033585;28;20234;-60
2022/07/09 09:56:50;;;;;;;4.97;4.18;;;21.20;99.90;;;-141.84;54.05;20559.78;5033692;28;20226;-61
2022/07/09 09:59:18;;;;;;;4.65;4.20;;;21.20;99.90;;;-141.84;53.86;20645.16;5033832;28;20247;-60
2022/07/09 10:01:47;;;;;;;4.90;3.85;;;21.50;99.90;;;-141.84;53.23;20671.59;5032761;28;20252;-61
2022/07/09 10:04:18;;;;;;;4.30;3.90;;;21.70;99.90;;;-141.84;51.36;20763.06;5033462;28;20294;-59
2022/07/09 10:06:47;;;;;;;4.80;3.55;;;22.00;99.90;;;-141.84;51.16;20826.09;5033484;28;20584;-61
2022/07/09 10:09:16;;;;;;;5.70;3.58;;;22.20;99.90;;;-141.84;50.31;20842.34;5033105;28;20245;-61
2022/07/09 10:11:47;;;;;;;3.95;3.65;;;22.40;99.90;;;-141.84;50.51;20842.34;5023389;28;20610;-60
2022/07/09 10:14:30;;;;;;;4.47;4.07;;;22.70;99.90;;;-141.84;51.12;20813.88;5013850;28;20266;-60